Aviation Digital Data Service (ADDS)

Output produced by TAFs form (1738 UTC 21 April 2018)
found at http://aviationweather.gov/adds/tafs/
 
TAF RJCM 211714Z 2118/2300 01011KT 9999 FEW008 BKN015 
     TEMPO 2118/2202 FEW005 BKN008 
     BECMG 2209/2212 17005KT